Terminal Aerodrome Forecast
Issued by NWS Northern Indiana

Home | Current Version | Previous Version | Text Only | Print | Product List | Glossary Off
Versions: 1 2 3 4 5 6 7 8 9 10 11 12 13 14 15 16 17 18 19 20 21 22 23 24

461
FTUS43 KIWX 270149 AAA
TAFFWA
TAF AMD
KFWA 270149Z 2702/2724 08010KT 6SM -SHRA BR SCT020 OVC040
      TEMPO 2703/2705 2SM TSRA BR OVC020CB
     FM270500 04006KT 6SM -SHRA BR OVC015
     FM270800 02006KT 5SM BR BKN008
     FM271200 03006KT P6SM BKN015
     FM271700 06006KT P6SM BKN035=

USA.gov is the U.S. government's official web portal to all federal, state and local government web resources and services.